Time;durP1;ratioP1;P1;durP2;ratioP2;P2;SDS_P1;SDS_P2;PMS_P1;PMS_P2;Temp;Humidity;BMP_temperature;BMP_pressure;BME280_temperature;BME280_humidity;BME280_pressure;Samples;Min_cycle;Max_cycle;Signal;HPM_P1;HPM_P2
2024/04/22 00:00:16;;;;;;;4.47;1.90;;;;;;;;;;5366309;26;19996;-70
2024/04/22 00:02:42;;;;;;;2.83;1.55;;;;;;;;;;5369080;26;20000;-71
2024/04/22 00:05:10;;;;;;;4.07;1.73;;;;;;;;;;5362321;26;20099;-72
2024/04/22 00:07:36;;;;;;;2.80;1.38;;;;;;;;;;5363856;26;19996;-71
2024/04/22 00:10:02;;;;;;;5.22;1.67;;;;;;;;;;5366021;26;20422;-71
2024/04/22 00:12:29;;;;;;;4.18;1.92;;;;;;;;;;5363830;26;20047;-72
2024/04/22 00:14:55;;;;;;;4.82;2.03;;;;;;;;;;5349748;26;20001;-71
2024/04/22 00:17:21;;;;;;;3.47;1.88;;;;;;;;;;5361803;26;20137;-72
2024/04/22 00:19:47;;;;;;;2.22;1.30;;;;;;;;;;5365571;26;19997;-70
2024/04/22 00:22:12;;;;;;;2.42;1.55;;;;;;;;;;5367644;26;19992;-70
2024/04/22 00:24:38;;;;;;;3.95;1.70;;;;;;;;;;5367963;26;20136;-71
2024/04/22 00:27:05;;;;;;;4.45;2.10;;;;;;;;;;5351618;26;20108;-70
2024/04/22 00:29:31;;;;;;;4.18;1.75;;;;;;;;;;5354314;26;20005;-71
2024/04/22 00:31:56;;;;;;;3.83;1.80;;;;;;;;;;5362740;26;20073;-71
2024/04/22 00:34:22;;;;;;;5.95;2.30;;;;;;;;;;5366129;26;20280;-70
2024/04/22 00:36:48;;;;;;;3.80;1.80;;;;;;;;;;5358868;26;20014;-72
2024/04/22 00:39:14;;;;;;;4.22;1.88;;;;;;;;;;5364012;26;20194;-71
2024/04/22 00:41:40;;;;;;;3.75;1.98;;;;;;;;;;5362358;26;20446;-71
2024/04/22 00:44:06;;;;;;;3.75;1.95;;;;;;;;;;5366790;26;20056;-70
2024/04/22 00:46:32;;;;;;;5.93;1.88;;;;;;;;;;5365115;26;20055;-70
2024/04/22 00:48:58;;;;;;;6.10;1.73;;;;;;;;;;5364049;26;20010;-70
2024/04/22 00:51:24;;;;;;;4.60;2.13;;;;;;;;;;5358698;26;19996;-71
2024/04/22 00:53:50;;;;;;;2.53;1.55;;;;;;;;;;5367430;26;20289;-70
2024/04/22 00:56:17;;;;;;;5.13;1.95;;;;;;;;;;5365247;26;20135;-73
2024/04/22 00:58:43;;;;;;;3.63;1.85;;;;;;;;;;5366238;26;20309;-70
2024/04/22 01:01:10;;;;;;;3.50;1.85;;;;;;;;;;5363874;26;20000;-70
2024/04/22 01:03:36;;;;;;;3.85;1.77;;;;;;;;;;5351883;26;20000;-71
2024/04/22 01:06:02;;;;;;;3.55;1.70;;;;;;;;;;5354103;26;20428;-70
2024/04/22 01:08:27;;;;;;;2.97;1.65;;;;;;;;;;5365782;26;20011;-70
2024/04/22 01:10:54;;;;;;;3.03;1.75;;;;;;;;;;5359694;26;20004;-71
2024/04/22 01:13:20;;;;;;;3.85;1.77;;;;;;;;;;5365699;26;20044;-71
2024/04/22 01:15:45;;;;;;;3.85;1.67;;;;;;;;;;5360618;26;20000;-70
2024/04/22 01:18:18;;;;;;;3.97;1.90;;;;;;;;;;5363469;26;20312;-69
2024/04/22 01:20:44;;;;;;;2.80;1.35;;;;;;;;;;5362807;26;20126;-71
2024/04/22 01:23:10;;;;;;;3.13;1.55;;;;;;;;;;5366061;26;20000;-71
2024/04/22 01:25:38;;;;;;;4.15;1.80;;;;;;;;;;5346315;26;20084;-70
2024/04/22 01:28:05;;;;;;;2.53;1.38;;;;;;;;;;5354040;26;20008;-72
2024/04/22 01:30:31;;;;;;;3.67;1.77;;;;;;;;;;5350161;26;20057;-71
2024/04/22 01:32:57;;;;;;;4.45;2.08;;;;;;;;;;5362475;26;20400;-71
2024/04/22 01:35:22;;;;;;;3.67;1.30;;;;;;;;;;5354817;26;20386;-70
2024/04/22 01:37:48;;;;;;;4.55;1.60;;;;;;;;;;5359973;26;20005;-71
2024/04/22 01:40:15;;;;;;;4.35;1.98;;;;;;;;;;5359550;26;20016;-70
2024/04/22 01:42:41;;;;;;;3.83;1.33;;;;;;;;;;5363467;26;20077;-70
2024/04/22 01:45:07;;;;;;;4.15;1.63;;;;;;;;;;5358790;26;20004;-70
2024/04/22 01:47:33;;;;;;;3.90;1.58;;;;;;;;;;5356677;26;20416;-71
2024/04/22 01:49:59;;;;;;;4.53;1.77;;;;;;;;;;5357832;26;20123;-70
2024/04/22 01:52:25;;;;;;;3.67;1.80;;;;;;;;;;5355135;26;20116;-71
2024/04/22 01:54:51;;;;;;;4.40;1.60;;;;;;;;;;5359942;26;20024;-71
2024/04/22 01:57:18;;;;;;;3.53;1.42;;;;;;;;;;5356208;26;20360;-71
2024/04/22 01:59:44;;;;;;;3.70;1.65;;;;;;;;;;5356170;26;20404;-71
2024/04/22 02:02:10;;;;;;;4.97;2.03;;;;;;;;;;5359794;26;20020;-70
2024/04/22 02:04:36;;;;;;;3.13;1.40;;;;;;;;;;5360788;26;20012;-71
2024/04/22 02:07:01;;;;;;;2.88;1.35;;;;;;;;;;5368321;26;20454;-71
2024/04/22 02:09:28;;;;;;;3.50;1.77;;;;;;;;;;5350244;26;20138;-70
2024/04/22 02:11:54;;;;;;;2.50;1.23;;;;;;;;;;5366118;26;20099;-71
2024/04/22 02:14:20;;;;;;;2.35;1.38;;;;;;;;;;5364803;26;20000;-71
2024/04/22 02:16:49;;;;;;;3.63;1.98;;;;;;;;;;5343002;26;20004;-71
2024/04/22 02:19:15;;;;;;;2.95;1.38;;;;;;;;;;5351686;26;20440;-71
2024/04/22 02:21:40;;;;;;;3.38;1.80;;;;;;;;;;5357887;26;20015;-71
2024/04/22 02:24:06;;;;;;;3.90;1.45;;;;;;;;;;5345772;26;20005;-71
2024/04/22 02:26:32;;;;;;;3.20;1.58;;;;;;;;;;5352626;26;20359;-71
2024/04/22 02:28:58;;;;;;;3.08;1.83;;;;;;;;;;5354324;26;20008;-70
2024/04/22 02:31:24;;;;;;;2.42;1.38;;;;;;;;;;5359262;26;20100;-71
2024/04/22 02:33:50;;;;;;;3.90;1.88;;;;;;;;;;5358525;26;20454;-70
2024/04/22 02:36:16;;;;;;;3.20;1.67;;;;;;;;;;5363913;26;20005;-71
2024/04/22 02:38:42;;;;;;;3.70;1.67;;;;;;;;;;5353903;26;20000;-70
2024/04/22 02:41:08;;;;;;;4.45;2.10;;;;;;;;;;5356426;26;20454;-71
2024/04/22 02:43:33;;;;;;;2.55;1.45;;;;;;;;;;5352945;26;20011;-71
2024/04/22 02:45:59;;;;;;;4.82;1.73;;;;;;;;;;5364275;26;20301;-71
2024/04/22 02:48:25;;;;;;;3.92;1.73;;;;;;;;;;5348218;26;20001;-71
2024/04/22 02:50:51;;;;;;;3.38;1.67;;;;;;;;;;5351123;26;20035;-71
2024/04/22 02:53:17;;;;;;;2.05;1.30;;;;;;;;;;5346855;26;20020;-70
2024/04/22 02:55:43;;;;;;;4.60;2.08;;;;;;;;;;5355136;26;20585;-71
2024/04/22 02:58:09;;;;;;;3.00;1.33;;;;;;;;;;5354853;26;20076;-71
2024/04/22 03:00:35;;;;;;;2.17;1.38;;;;;;;;;;5364833;26;20010;-70
2024/04/22 03:03:01;;;;;;;3.22;1.50;;;;;;;;;;5362163;26;20417;-70
2024/04/22 03:05:27;;;;;;;3.28;1.70;;;;;;;;;;5350012;26;20012;-70
2024/04/22 03:07:52;;;;;;;3.25;1.73;;;;;;;;;;5363133;26;20298;-70
2024/04/22 03:10:18;;;;;;;3.65;1.70;;;;;;;;;;5349325;26;20402;-71
2024/04/22 03:12:44;;;;;;;3.70;1.63;;;;;;;;;;5366886;26;19996;-70
2024/04/22 03:15:10;;;;;;;3.08;1.50;;;;;;;;;;5362737;26;20017;-70
2024/04/22 03:17:36;;;;;;;4.78;1.90;;;;;;;;;;5363852;26;20001;-70
2024/04/22 03:20:03;;;;;;;2.33;1.40;;;;;;;;;;5366489;26;20354;-70
2024/04/22 03:22:29;;;;;;;2.33;1.33;;;;;;;;;;5361435;26;20011;-70
2024/04/22 03:24:55;;;;;;;3.88;2.00;;;;;;;;;;5371554;26;20000;-70
2024/04/22 03:27:21;;;;;;;4.40;1.73;;;;;;;;;;5363393;26;20385;-71
2024/04/22 03:29:47;;;;;;;3.78;1.70;;;;;;;;;;5364817;26;20004;-70
2024/04/22 03:32:13;;;;;;;3.28;1.73;;;;;;;;;;5366245;26;20005;-70
2024/04/22 03:34:39;;;;;;;3.42;1.40;;;;;;;;;;5356501;26;20147;-70
2024/04/22 03:37:05;;;;;;;2.78;1.70;;;;;;;;;;5344892;26;20397;-73
2024/04/22 03:39:31;;;;;;;2.42;1.35;;;;;;;;;;5361881;26;20018;-70
2024/04/22 03:41:57;;;;;;;2.95;1.80;;;;;;;;;;5366336;26;20012;-71
2024/04/22 03:44:23;;;;;;;3.92;1.67;;;;;;;;;;5364817;26;20152;-70
2024/04/22 03:49:54;;;;;;;4.18;1.95;;;;;;;;;;5362038;26;20010;-70
2024/04/22 03:52:20;;;;;;;4.25;1.75;;;;;;;;;;5353194;26;20000;-70
2024/04/22 03:54:46;;;;;;;4.15;1.80;;;;;;;;;;5361226;26;20000;-71
2024/04/22 03:57:12;;;;;;;3.60;1.77;;;;;;;;;;5368194;26;20074;-71
2024/04/22 03:59:41;;;;;;;3.67;1.63;;;;;;;;;;5365395;26;20000;-72
2024/04/22 04:02:07;;;;;;;2.50;1.48;;;;;;;;;;5366079;26;20035;-70
2024/04/22 04:04:33;;;;;;;2.38;1.48;;;;;;;;;;5356741;26;20450;-71
2024/04/22 04:06:59;;;;;;;4.32;2.03;;;;;;;;;;5363426;26;20004;-70
2024/04/22 04:09:25;;;;;;;4.03;1.77;;;;;;;;;;5358105;26;20025;-72
2024/04/22 04:11:52;;;;;;;3.08;1.55;;;;;;;;;;5357464;26;20375;-71
2024/04/22 04:14:18;;;;;;;4.15;1.98;;;;;;;;;;5352103;26;20524;-70
2024/04/22 04:16:44;;;;;;;5.38;1.58;;;;;;;;;;5361288;26;20437;-70
2024/04/22 04:19:10;;;;;;;3.03;1.40;;;;;;;;;;5356681;26;20484;-70
2024/04/22 04:21:36;;;;;;;3.53;2.08;;;;;;;;;;5358592;26;20043;-72
2024/04/22 04:24:01;;;;;;;3.58;2.25;;;;;;;;;;5371625;26;20166;-70
2024/04/22 04:26:27;;;;;;;3.03;1.77;;;;;;;;;;5352209;26;20012;-71
2024/04/22 04:28:53;;;;;;;2.90;1.40;;;;;;;;;;5357819;26;19996;-68
2024/04/22 04:31:19;;;;;;;2.63;1.35;;;;;;;;;;5367831;26;20059;-67
2024/04/22 04:33:45;;;;;;;3.60;2.15;;;;;;;;;;5357267;26;20325;-68
2024/04/22 04:36:11;;;;;;;3.80;1.83;;;;;;;;;;5363346;26;20000;-68
2024/04/22 04:38:37;;;;;;;3.72;1.77;;;;;;;;;;5366145;26;19996;-67
2024/04/22 04:41:04;;;;;;;5.80;2.03;;;;;;;;;;5361404;26;20417;-68
2024/04/22 04:43:32;;;;;;;2.70;1.77;;;;;;;;;;5362048;26;20059;-68
2024/04/22 04:45:59;;;;;;;3.50;1.80;;;;;;;;;;5357215;26;20000;-68
2024/04/22 04:48:25;;;;;;;2.80;1.73;;;;;;;;;;5362087;26;20322;-68
2024/04/22 04:50:51;;;;;;;2.88;1.48;;;;;;;;;;5360175;26;20014;-68
2024/04/22 04:53:17;;;;;;;3.60;1.63;;;;;;;;;;5352068;26;20024;-68
2024/04/22 04:55:47;;;;;;;3.67;1.80;;;;;;;;;;5359613;26;20348;-67
2024/04/22 04:58:13;;;;;;;2.28;1.52;;;;;;;;;;5359136;26;19997;-68
2024/04/22 05:00:39;;;;;;;5.20;1.75;;;;;;;;;;5359767;26;20042;-68
2024/04/22 05:03:05;;;;;;;7.40;2.03;;;;;;;;;;5357360;26;20205;-67
2024/04/22 05:05:31;;;;;;;3.90;2.03;;;;;;;;;;5362884;26;20107;-67
2024/04/22 05:07:57;;;;;;;4.90;2.03;;;;;;;;;;5359005;26;20062;-67
2024/04/22 05:10:23;;;;;;;4.95;2.08;;;;;;;;;;5353368;26;20020;-69
2024/04/22 05:12:49;;;;;;;3.55;1.92;;;;;;;;;;5359914;26;20023;-70
2024/04/22 05:15:15;;;;;;;3.80;2.00;;;;;;;;;;5361912;26;20401;-70
2024/04/22 05:17:41;;;;;;;3.88;1.83;;;;;;;;;;5360194;26;20014;-71
2024/04/22 05:20:07;;;;;;;5.03;2.08;;;;;;;;;;5358299;26;20289;-67
2024/04/22 05:22:33;;;;;;;6.10;2.72;;;;;;;;;;5346836;26;20008;-67
2024/04/22 05:24:59;;;;;;;3.53;1.92;;;;;;;;;;5357129;26;20425;-67
2024/04/22 05:27:25;;;;;;;5.00;2.17;;;;;;;;;;5344360;26;20460;-67
2024/04/22 05:29:51;;;;;;;3.70;1.52;;;;;;;;;;5362228;26;20028;-68
2024/04/22 05:32:17;;;;;;;3.08;1.60;;;;;;;;;;5348238;26;20000;-68
2024/04/22 05:37:28;;;;;;;3.22;1.73;;;;;;;;;;5360986;26;20008;-68
2024/04/22 05:39:54;;;;;;;3.63;1.50;;;;;;;;;;5356377;26;20016;-68
2024/04/22 05:42:20;;;;;;;1.75;1.10;;;;;;;;;;5359575;26;20847;-68
2024/04/22 05:44:46;;;;;;;3.90;1.75;;;;;;;;;;5360647;26;20339;-68
2024/04/22 05:47:12;;;;;;;2.67;1.40;;;;;;;;;;5366058;26;20000;-68
2024/04/22 05:49:38;;;;;;;2.97;1.42;;;;;;;;;;5359035;26;20004;-68
2024/04/22 05:52:04;;;;;;;2.58;1.40;;;;;;;;;;5352194;26;20028;-68
2024/04/22 05:54:30;;;;;;;2.72;1.30;;;;;;;;;;5364338;26;20016;-72
2024/04/22 05:56:56;;;;;;;2.75;1.30;;;;;;;;;;5362905;26;20077;-69
2024/04/22 05:59:23;;;;;;;2.30;1.20;;;;;;;;;;5360809;26;20032;-68
2024/04/22 06:01:49;;;;;;;3.35;1.40;;;;;;;;;;5359895;26;20099;-68
2024/04/22 06:04:15;;;;;;;1.42;0.95;;;;;;;;;;5350048;26;20055;-70
2024/04/22 06:06:41;;;;;;;2.75;1.30;;;;;;;;;;5352744;26;20084;-70
2024/04/22 06:09:09;;;;;;;3.22;1.38;;;;;;;;;;5355216;26;20134;-67
2024/04/22 06:11:35;;;;;;;1.95;1.00;;;;;;;;;;5354321;26;20100;-67
2024/04/22 06:14:01;;;;;;;1.20;0.70;;;;;;;;;;5357285;26;20529;-68
2024/04/22 06:16:27;;;;;;;1.80;0.98;;;;;;;;;;5364783;26;20409;-68
2024/04/22 06:18:53;;;;;;;1.00;0.70;;;;;;;;;;5357057;26;20082;-67
2024/04/22 06:21:19;;;;;;;1.40;1.00;;;;;;;;;;5362742;26;20473;-68
2024/04/22 06:23:45;;;;;;;0.73;0.68;;;;;;;;;;5353961;26;20385;-68
2024/04/22 06:26:13;;;;;;;2.60;0.85;;;;;;;;;;5349315;26;20083;-68
2024/04/22 06:28:39;;;;;;;0.93;0.68;;;;;;;;;;5344470;26;20041;-68
2024/04/22 06:31:05;;;;;;;1.52;0.90;;;;;;;;;;5362669;26;20082;-68
2024/04/22 06:33:33;;;;;;;1.85;0.90;;;;;;;;;;5361089;26;20081;-67
2024/04/22 06:35:58;;;;;;;1.42;0.80;;;;;;;;;;5371893;26;20464;-67
2024/04/22 06:38:25;;;;;;;1.65;0.90;;;;;;;;;;5370272;26;20019;-67
2024/04/22 06:40:51;;;;;;;0.98;0.80;;;;;;;;;;5351376;26;20003;-69
2024/04/22 06:43:17;;;;;;;1.05;0.88;;;;;;;;;;5351537;26;20001;-67
2024/04/22 06:45:43;;;;;;;2.25;0.85;;;;;;;;;;5366045;26;20081;-67
2024/04/22 06:48:10;;;;;;;1.20;0.70;;;;;;;;;;5363871;26;20033;-67
2024/04/22 06:50:36;;;;;;;1.40;0.93;;;;;;;;;;5367131;26;20490;-67
2024/04/22 06:53:02;;;;;;;1.25;0.70;;;;;;;;;;5370184;26;20099;-69
2024/04/22 06:55:28;;;;;;;1.42;0.50;;;;;;;;;;5368193;26;20304;-67
2024/04/22 06:57:54;;;;;;;1.00;0.60;;;;;;;;;;5349834;26;20073;-67
2024/04/22 07:00:20;;;;;;;1.27;0.60;;;;;;;;;;5365212;26;20004;-67
2024/04/22 07:02:46;;;;;;;0.70;0.60;;;;;;;;;;5364465;26;20266;-67
2024/04/22 07:05:12;;;;;;;0.65;0.60;;;;;;;;;;5366935;26;20356;-67
2024/04/22 07:07:38;;;;;;;0.88;0.55;;;;;;;;;;5366361;26;20464;-67
2024/04/22 07:10:04;;;;;;;2.83;0.60;;;;;;;;;;5365566;26;20077;-69
2024/04/22 07:12:30;;;;;;;1.10;0.60;;;;;;;;;;5362713;26;20012;-67
2024/04/22 07:14:56;;;;;;;0.80;0.60;;;;;;;;;;5339279;26;20373;-67
2024/04/22 07:17:22;;;;;;;0.50;0.50;;;;;;;;;;5366567;26;20080;-67
2024/04/22 07:19:50;;;;;;;1.08;0.65;;;;;;;;;;5369596;26;20364;-67
2024/04/22 07:22:16;;;;;;;0.75;0.60;;;;;;;;;;5353956;26;20321;-66
2024/04/22 07:24:42;;;;;;;0.40;0.32;;;;;;;;;;5376414;26;20293;-67
2024/04/22 07:27:08;;;;;;;0.95;0.35;;;;;;;;;;5355851;26;20000;-67
2024/04/22 07:29:34;;;;;;;0.77;0.50;;;;;;;;;;5366907;26;20314;-67
2024/04/22 07:32:00;;;;;;;1.23;0.75;;;;;;;;;;5360584;26;20317;-67
2024/04/22 07:34:26;;;;;;;2.15;0.70;;;;;;;;;;5369207;26;20000;-67
2024/04/22 07:37:12;;;;;;;6.55;0.90;;;;;;;;;;5362645;26;20000;-67
2024/04/22 07:39:41;;;;;;;0.77;0.55;;;;;;;;;;5357043;26;20363;-67
2024/04/22 07:42:07;;;;;;;1.00;0.77;;;;;;;;;;5354545;26;20018;-67
2024/04/22 07:44:33;;;;;;;1.15;0.68;;;;;;;;;;5354775;26;20000;-68
2024/04/22 07:46:59;;;;;;;2.60;0.90;;;;;;;;;;5361759;26;20040;-68
2024/04/22 07:49:25;;;;;;;2.25;0.70;;;;;;;;;;5364991;26;20028;-67
2024/04/22 07:51:51;;;;;;;4.10;1.73;;;;;;;;;;5360890;26;20010;-67
2024/04/22 07:54:17;;;;;;;4.93;1.92;;;;;;;;;;5359145;26;20102;-69
2024/04/22 07:56:43;;;;;;;1.50;0.80;;;;;;;;;;5363945;26;20123;-67
2024/04/22 07:59:09;;;;;;;2.10;0.88;;;;;;;;;;5363851;26;20399;-67
2024/04/22 08:01:35;;;;;;;35.42;10.75;;;;;;;;;;5357089;26;20080;-67
2024/04/22 08:04:02;;;;;;;1.85;1.27;;;;;;;;;;5370933;26;20007;-68
2024/04/22 08:06:34;;;;;;;2.50;0.82;;;;;;;;;;5363134;26;20419;-67
2024/04/22 08:09:00;;;;;;;1.38;0.63;;;;;;;;;;5366636;26;20355;-67
2024/04/22 08:11:26;;;;;;;1.63;0.75;;;;;;;;;;5367807;26;20023;-67
2024/04/22 08:13:52;;;;;;;5.53;1.25;;;;;;;;;;5360935;26;20065;-67
2024/04/22 08:16:18;;;;;;;8.27;3.50;;;;;;;;;;5365311;26;20307;-67
2024/04/22 08:18:44;;;;;;;2.47;1.42;;;;;;;;;;5372431;26;20715;-67
2024/04/22 08:21:12;;;;;;;4.80;1.30;;;;;;;;;;5360645;26;20091;-67
2024/04/22 08:23:38;;;;;;;5.20;1.77;;;;;;;;;;5376208;26;20019;-67
2024/04/22 08:26:04;;;;;;;1.60;0.60;;;;;;;;;;5336744;26;20004;-67
2024/04/22 08:28:30;;;;;;;1.67;0.63;;;;;;;;;;5360436;26;20079;-67
2024/04/22 08:31:09;;;;;;;1.63;1.00;;;;;;;;;;5361479;26;20001;-68
2024/04/22 08:33:35;;;;;;;2.22;0.82;;;;;;;;;;5356937;26;19997;-68
2024/04/22 08:36:02;;;;;;;1.35;0.80;;;;;;;;;;5348235;26;20036;-69
2024/04/22 08:38:28;;;;;;;1.35;0.55;;;;;;;;;;5360607;26;20069;-67
2024/04/22 08:40:55;;;;;;;1.50;0.77;;;;;;;;;;5361092;26;20344;-68
2024/04/22 08:43:23;;;;;;;1.38;0.70;;;;;;;;;;5346430;26;20043;-67
2024/04/22 08:45:48;;;;;;;1.45;0.70;;;;;;;;;;5355971;26;19996;-68
2024/04/22 08:48:15;;;;;;;1.15;0.77;;;;;;;;;;5354594;26;20462;-67
2024/04/22 08:50:41;;;;;;;1.77;1.00;;;;;;;;;;5353664;26;20001;-68
2024/04/22 08:53:11;;;;;;;3.10;1.38;;;;;;;;;;5354636;26;20420;-67
2024/04/22 08:55:38;;;;;;;2.78;0.95;;;;;;;;;;5365602;26;20061;-67
2024/04/22 08:58:04;;;;;;;1.15;0.80;;;;;;;;;;5352270;26;20067;-68
2024/04/22 09:00:30;;;;;;;1.42;0.70;;;;;;;;;;5354304;26;20015;-68
2024/04/22 09:02:56;;;;;;;0.93;0.80;;;;;;;;;;5363814;26;20081;-67
2024/04/22 09:05:22;;;;;;;1.20;0.82;;;;;;;;;;5358542;26;20004;-67
2024/04/22 09:07:52;;;;;;;0.90;0.70;;;;;;;;;;5341987;26;20008;-67
2024/04/22 09:10:19;;;;;;;1.38;0.77;;;;;;;;;;5350227;26;20015;-67
2024/04/22 09:12:54;;;;;;;0.63;0.63;;;;;;;;;;5367556;26;20028;-67
2024/04/22 09:15:20;;;;;;;1.88;0.80;;;;;;;;;;5367937;26;20281;-67
2024/04/22 09:17:46;;;;;;;0.90;0.55;;;;;;;;;;5368659;26;20027;-67
2024/04/22 09:20:18;;;;;;;1.33;0.98;;;;;;;;;;5367175;26;20462;-68
2024/04/22 09:22:44;;;;;;;0.55;0.40;;;;;;;;;;5369466;26;20004;-67
2024/04/22 09:25:10;;;;;;;0.52;0.50;;;;;;;;;;5374320;26;20024;-68
2024/04/22 09:27:37;;;;;;;1.90;0.73;;;;;;;;;;5360402;26;20098;-67
2024/04/22 09:30:06;;;;;;;0.65;0.55;;;;;;;;;;5364059;26;20004;-67
2024/04/22 09:32:32;;;;;;;0.50;0.40;;;;;;;;;;5348083;26;19999;-68
2024/04/22 09:35:04;;;;;;;1.10;0.50;;;;;;;;;;5363870;26;20070;-67
2024/04/22 09:37:30;;;;;;;0.40;0.40;;;;;;;;;;5352724;26;20024;-67
2024/04/22 09:39:57;;;;;;;0.95;0.50;;;;;;;;;;5360372;26;19993;-67
2024/04/22 09:42:23;;;;;;;0.55;0.50;;;;;;;;;;5362295;26;20088;-67
2024/04/22 09:44:49;;;;;;;0.63;0.55;;;;;;;;;;5345216;26;20051;-67
2024/04/22 09:47:15;;;;;;;0.73;0.47;;;;;;;;;;5361336;26;20401;-68
2024/04/22 09:49:41;;;;;;;0.75;0.50;;;;;;;;;;5366725;26;20033;-71
2024/04/22 09:52:07;;;;;;;0.80;0.50;;;;;;;;;;5368881;26;20000;-69
2024/04/22 09:54:33;;;;;;;1.20;0.40;;;;;;;;;;5357065;26;20024;-70
2024/04/22 09:56:59;;;;;;;0.80;0.50;;;;;;;;;;5358249;26;20353;-70
2024/04/22 09:59:26;;;;;;;1.85;0.57;;;;;;;;;;5362821;26;20000;-70
2024/04/22 10:01:51;;;;;;;0.55;0.47;;;;;;;;;;5367022;26;20008;-69
2024/04/22 10:04:18;;;;;;;0.68;0.60;;;;;;;;;;5357499;26;20011;-68
2024/04/22 10:06:44;;;;;;;0.85;0.57;;;;;;;;;;5368896;26;20015;-69
2024/04/22 10:09:15;;;;;;;1.65;0.63;;;;;;;;;;5370412;26;20278;-68
2024/04/22 10:11:42;;;;;;;0.63;0.47;;;;;;;;;;5369610;26;20334;-69
2024/04/22 10:14:14;;;;;;;0.55;0.40;;;;;;;;;;5367719;26;20443;-68
2024/04/22 10:16:40;;;;;;;0.70;0.60;;;;;;;;;;5364886;26;20014;-67
2024/04/22 10:19:06;;;;;;;0.75;0.43;;;;;;;;;;5355895;26;20020;-67
2024/04/22 10:21:33;;;;;;;0.85;0.50;;;;;;;;;;5364077;26;20004;-67
2024/04/22 10:23:59;;;;;;;1.15;0.60;;;;;;;;;;5369997;26;20016;-68
2024/04/22 10:26:25;;;;;;;0.70;0.60;;;;;;;;;;5357879;26;20349;-67
2024/04/22 10:28:51;;;;;;;0.50;0.50;;;;;;;;;;5364447;26;20417;-68
2024/04/22 10:31:19;;;;;;;0.90;0.70;;;;;;;;;;5356974;26;20050;-67
2024/04/22 10:33:45;;;;;;;1.20;0.80;;;;;;;;;;5361649;26;20000;-67
2024/04/22 10:36:11;;;;;;;1.92;0.60;;;;;;;;;;5358681;26;20011;-68
2024/04/22 10:38:36;;;;;;;0.52;0.43;;;;;;;;;;5357249;26;20320;-67
2024/04/22 10:41:02;;;;;;;0.57;0.38;;;;;;;;;;5361847;26;20320;-67
2024/04/22 10:43:28;;;;;;;0.50;0.50;;;;;;;;;;5363200;26;20004;-67
2024/04/22 10:45:54;;;;;;;0.93;0.63;;;;;;;;;;5367566;26;19996;-67
2024/04/22 10:48:20;;;;;;;0.95;0.60;;;;;;;;;;5363304;26;20229;-67
2024/04/22 10:50:46;;;;;;;1.88;0.60;;;;;;;;;;5355751;26;20024;-68
2024/04/22 10:53:13;;;;;;;1.48;0.68;;;;;;;;;;5368857;26;20001;-67
2024/04/22 10:55:39;;;;;;;2.08;0.65;;;;;;;;;;5362000;26;20015;-67
2024/04/22 10:58:05;;;;;;;0.80;0.68;;;;;;;;;;5359790;26;19996;-67
2024/04/22 11:00:31;;;;;;;0.60;0.50;;;;;;;;;;5360187;26;20074;-69
2024/04/22 11:02:58;;;;;;;2.22;0.60;;;;;;;;;;5365588;26;19993;-68
2024/04/22 11:05:24;;;;;;;1.35;0.68;;;;;;;;;;5357991;26;20131;-69
2024/04/22 11:07:50;;;;;;;0.55;0.50;;;;;;;;;;5361358;26;20193;-69
2024/04/22 11:10:17;;;;;;;1.45;0.52;;;;;;;;;;5352813;26;20004;-68
2024/04/22 11:12:43;;;;;;;0.90;0.70;;;;;;;;;;5361414;26;20035;-68
2024/04/22 11:15:09;;;;;;;2.28;0.70;;;;;;;;;;5363982;26;20000;-68
2024/04/22 11:17:35;;;;;;;0.88;0.50;;;;;;;;;;5369422;26;20015;-68
2024/04/22 11:20:08;;;;;;;0.60;0.50;;;;;;;;;;5364185;26;20121;-69
2024/04/22 11:22:35;;;;;;;1.13;0.60;;;;;;;;;;5362879;26;20015;-69
2024/04/22 11:25:02;;;;;;;2.03;0.70;;;;;;;;;;5363388;26;20024;-69
2024/04/22 11:27:28;;;;;;;1.55;0.90;;;;;;;;;;5363986;26;20575;-69
2024/04/22 11:29:54;;;;;;;0.70;0.60;;;;;;;;;;5358634;26;20123;-69
2024/04/22 11:32:20;;;;;;;1.98;0.75;;;;;;;;;;5359067;26;20460;-68
2024/04/22 11:34:49;;;;;;;1.35;0.68;;;;;;;;;;5361347;26;20084;-68
2024/04/22 11:37:15;;;;;;;0.95;0.50;;;;;;;;;;5357962;26;20042;-69
2024/04/22 11:39:41;;;;;;;1.17;0.55;;;;;;;;;;5366189;26;20004;-69
2024/04/22 11:42:07;;;;;;;1.48;0.70;;;;;;;;;;5352496;26;20356;-69
2024/04/22 11:44:33;;;;;;;0.98;0.60;;;;;;;;;;5359222;26;19993;-69
2024/04/22 11:46:59;;;;;;;1.48;0.70;;;;;;;;;;5361064;26;20363;-69
2024/04/22 11:49:25;;;;;;;0.63;0.57;;;;;;;;;;5363140;26;20162;-68
2024/04/22 11:51:51;;;;;;;1.13;0.70;;;;;;;;;;5358804;26;20000;-69
2024/04/22 11:54:17;;;;;;;1.88;0.82;;;;;;;;;;5353234;26;20021;-69
2024/04/22 11:56:42;;;;;;;1.33;0.47;;;;;;;;;;5364365;26;20008;-68
2024/04/22 11:59:08;;;;;;;0.73;0.55;;;;;;;;;;5367143;26;20131;-67
2024/04/22 12:01:34;;;;;;;0.60;0.50;;;;;;;;;;5365066;26;20067;-68
2024/04/22 12:04:00;;;;;;;1.13;0.63;;;;;;;;;;5361290;26;20090;-68
2024/04/22 12:06:27;;;;;;;1.20;0.60;;;;;;;;;;5358847;26;20108;-68
2024/04/22 12:08:53;;;;;;;0.75;0.60;;;;;;;;;;5367314;26;20004;-69
2024/04/22 12:11:19;;;;;;;0.90;0.57;;;;;;;;;;5365835;26;20008;-68
2024/04/22 12:13:45;;;;;;;1.33;0.60;;;;;;;;;;5358792;26;20001;-69
2024/04/22 12:16:11;;;;;;;0.90;0.70;;;;;;;;;;5354353;26;20023;-69
2024/04/22 12:18:37;;;;;;;1.60;0.65;;;;;;;;;;5359281;26;20439;-70
2024/04/22 12:21:03;;;;;;;0.63;0.55;;;;;;;;;;5364445;26;20082;-70
2024/04/22 12:23:28;;;;;;;2.03;0.65;;;;;;;;;;5363198;26;20028;-69
2024/04/22 12:25:56;;;;;;;1.25;0.70;;;;;;;;;;5355449;26;20074;-69
2024/04/22 12:28:22;;;;;;;1.00;0.70;;;;;;;;;;5354928;26;20012;-69
2024/04/22 12:30:50;;;;;;;0.85;0.60;;;;;;;;;;5360911;26;20001;-69
2024/04/22 12:33:17;;;;;;;1.05;0.70;;;;;;;;;;5351669;26;20074;-69
2024/04/22 12:35:42;;;;;;;0.95;0.45;;;;;;;;;;5367339;26;20024;-69
2024/04/22 12:38:08;;;;;;;1.67;0.70;;;;;;;;;;5367502;26;20117;-69
2024/04/22 12:40:34;;;;;;;1.08;0.70;;;;;;;;;;5369016;26;20126;-69
2024/04/22 12:43:00;;;;;;;0.77;0.50;;;;;;;;;;5348630;26;20001;-69
2024/04/22 12:45:26;;;;;;;1.00;0.70;;;;;;;;;;5363588;26;21229;-69
2024/04/22 12:50:45;;;;;;;1.05;0.57;;;;;;;;;;5364273;26;20081;-68
2024/04/22 12:53:11;;;;;;;1.05;0.50;;;;;;;;;;5355314;26;20012;-69
2024/04/22 12:55:37;;;;;;;2.15;0.70;;;;;;;;;;5364560;26;20297;-68
2024/04/22 12:58:03;;;;;;;4.00;0.60;;;;;;;;;;5368545;26;20047;-68
2024/04/22 13:00:29;;;;;;;0.68;0.55;;;;;;;;;;5368369;26;20489;-68
2024/04/22 13:02:55;;;;;;;1.33;0.70;;;;;;;;;;5368817;26;20004;-68
2024/04/22 13:05:21;;;;;;;1.73;1.00;;;;;;;;;;5366758;26;20012;-68
2024/04/22 13:07:47;;;;;;;1.02;0.60;;;;;;;;;;5368907;26;20416;-68
2024/04/22 13:10:13;;;;;;;2.35;0.60;;;;;;;;;;5365691;26;20082;-68
2024/04/22 13:12:39;;;;;;;1.77;0.82;;;;;;;;;;5361905;26;20123;-68
2024/04/22 13:15:05;;;;;;;2.25;0.77;;;;;;;;;;5355581;26;20474;-71
2024/04/22 13:17:31;;;;;;;1.75;0.95;;;;;;;;;;5351669;26;20055;-69
2024/04/22 13:19:57;;;;;;;1.33;0.75;;;;;;;;;;5364578;26;20000;-69
2024/04/22 13:22:23;;;;;;;1.80;0.60;;;;;;;;;;5352640;26;20321;-69
2024/04/22 13:24:48;;;;;;;0.90;0.60;;;;;;;;;;5365171;26;20112;-68
2024/04/22 13:27:14;;;;;;;1.15;0.80;;;;;;;;;;5361480;26;20015;-69
2024/04/22 13:29:40;;;;;;;1.13;0.70;;;;;;;;;;5348965;26;20391;-69
2024/04/22 13:32:07;;;;;;;0.93;0.60;;;;;;;;;;5351600;26;20112;-68
2024/04/22 13:34:33;;;;;;;1.73;0.90;;;;;;;;;;5362739;26;20425;-69
2024/04/22 13:36:58;;;;;;;0.95;0.65;;;;;;;;;;5368014;26;20085;-68
2024/04/22 13:39:24;;;;;;;1.15;0.55;;;;;;;;;;5364277;26;20028;-68
2024/04/22 13:41:51;;;;;;;1.30;0.70;;;;;;;;;;5360051;26;19996;-67
2024/04/22 13:44:17;;;;;;;1.00;0.70;;;;;;;;;;5361295;26;20011;-67
2024/04/22 13:46:42;;;;;;;1.05;0.75;;;;;;;;;;5368183;26;20331;-67
2024/04/22 13:49:13;;;;;;;1.08;0.60;;;;;;;;;;5364741;26;20001;-67
2024/04/22 13:51:40;;;;;;;1.58;0.88;;;;;;;;;;5368889;26;20131;-68
2024/04/22 13:54:06;;;;;;;0.93;0.57;;;;;;;;;;5364971;26;20063;-67
2024/04/22 13:56:32;;;;;;;1.58;0.70;;;;;;;;;;5364789;26;20007;-68
2024/04/22 13:58:58;;;;;;;0.60;0.50;;;;;;;;;;5361709;26;20005;-68
2024/04/22 14:01:24;;;;;;;0.75;0.60;;;;;;;;;;5367773;26;20011;-68
2024/04/22 14:03:50;;;;;;;1.85;0.75;;;;;;;;;;5352636;26;20026;-66
2024/04/22 14:06:16;;;;;;;1.00;0.60;;;;;;;;;;5365341;26;20001;-68
2024/04/22 14:08:42;;;;;;;2.25;0.80;;;;;;;;;;5359065;26;20029;-72
2024/04/22 14:11:11;;;;;;;0.80;0.60;;;;;;;;;;5360349;26;20084;-71
2024/04/22 14:13:37;;;;;;;0.68;0.50;;;;;;;;;;5361364;26;20097;-71
2024/04/22 14:16:03;;;;;;;4.13;0.70;;;;;;;;;;5358446;26;20015;-71
2024/04/22 14:18:29;;;;;;;1.30;0.60;;;;;;;;;;5361427;26;20460;-71
2024/04/22 14:20:55;;;;;;;1.08;0.60;;;;;;;;;;5363409;26;19996;-71
2024/04/22 14:23:21;;;;;;;1.83;0.77;;;;;;;;;;5363060;26;20147;-72
2024/04/22 14:25:47;;;;;;;1.33;0.80;;;;;;;;;;5365350;26;20012;-73
2024/04/22 14:28:16;;;;;;;1.65;0.70;;;;;;;;;;5356124;26;20045;-72
2024/04/22 14:30:42;;;;;;;1.00;0.50;;;;;;;;;;5353557;26;20073;-68
2024/04/22 14:33:09;;;;;;;1.33;0.70;;;;;;;;;;5367192;26;20083;-68
2024/04/22 14:35:35;;;;;;;0.63;0.52;;;;;;;;;;5358736;26;20455;-68
2024/04/22 14:38:01;;;;;;;1.60;0.90;;;;;;;;;;5357895;26;20134;-68
2024/04/22 14:40:27;;;;;;;2.80;0.82;;;;;;;;;;5357204;26;19997;-67
2024/04/22 14:42:53;;;;;;;1.33;0.60;;;;;;;;;;5364378;26;20016;-67
2024/04/22 14:45:19;;;;;;;1.60;0.80;;;;;;;;;;5363473;26;20075;-69